Coffeyville, Kansas
Current Conditions -  °F | °C
As of 10:52 PM on Saturday 20 Dec 2014 (Local Time) from KCFV Reporting Station
Overcast Overcast  
Wind Chill: 36°   Ceiling: 1800
Heat Index: 42°   Visibility: 10mi
Dew Point: 36°   Wind: 10mph
Humidity: 79%   Direction: 190°S
Pressure: 30.18"   Gusts: NA
Location:  37.03°N, 95.62°W
Report Text: KCFV 210452Z AUTO 19009KT 10SM OVC018 06/02 A3018 RMK AO2 SLP222 T00560022
Loading
Personal Weather Stations






























Interactive Weather Map New forecast layout! Learn more

10-Day Weather Forecast

Advertisements
Track Severe Weather on mobile